sensor_id;sensor_type;location;lat;lon;timestamp;pressure;altitude;pressure_sealevel;temperature;humidity
53715;BME280;39608;55.630;37.864;2023-05-16T00:03:09;100094.28;;;15.87;42.44
53715;BME280;39608;55.630;37.864;2023-05-16T00:08:11;100102.88;;;15.72;42.90
53715;BME280;39608;55.630;37.864;2023-05-16T00:13:13;100109.66;;;15.74;42.38
53715;BME280;39608;55.630;37.864;2023-05-16T00:18:17;100104.00;;;15.71;42.42
53715;BME280;39608;55.630;37.864;2023-05-16T00:23:19;100107.00;;;15.61;43.66
53715;BME280;39608;55.630;37.864;2023-05-16T00:28:21;100117.22;;;15.46;41.53
53715;BME280;39608;55.630;37.864;2023-05-16T00:33:25;100116.50;;;15.09;41.97
53715;BME280;39608;55.630;37.864;2023-05-16T00:38:27;100120.97;;;14.54;42.47
53715;BME280;39608;55.630;37.864;2023-05-16T00:43:29;100129.50;;;13.97;43.16
53715;BME280;39608;55.630;37.864;2023-05-16T00:48:33;100126.34;;;13.62;44.00
53715;BME280;39608;55.630;37.864;2023-05-16T00:53:35;100127.81;;;13.41;44.14
53715;BME280;39608;55.630;37.864;2023-05-16T00:58:37;100128.41;;;13.18;44.47
53715;BME280;39608;55.630;37.864;2023-05-16T01:03:41;100108.88;;;12.97;45.01
53715;BME280;39608;55.630;37.864;2023-05-16T01:08:43;100113.94;;;13.04;44.96
53715;BME280;39608;55.630;37.864;2023-05-16T01:13:53;100120.31;;;13.13;44.99
53715;BME280;39608;55.630;37.864;2023-05-16T01:19:02;100128.91;;;13.21;44.78
53715;BME280;39608;55.630;37.864;2023-05-16T01:24:13;100128.63;;;13.22;45.31
53715;BME280;39608;55.630;37.864;2023-05-16T01:29:16;100135.53;;;13.33;41.79
53715;BME280;39608;55.630;37.864;2023-05-16T01:34:18;100133.22;;;12.89;45.74
53715;BME280;39608;55.630;37.864;2023-05-16T01:39:36;100132.84;;;12.76;45.92
53715;BME280;39608;55.630;37.864;2023-05-16T01:44:45;100123.44;;;12.69;46.72
53715;BME280;39608;55.630;37.864;2023-05-16T01:49:57;100135.28;;;12.78;47.06
53715;BME280;39608;55.630;37.864;2023-05-16T01:55:02;100124.81;;;12.66;46.67
53715;BME280;39608;55.630;37.864;2023-05-16T02:00:07;100125.78;;;12.75;46.68
53715;BME280;39608;55.630;37.864;2023-05-16T02:05:10;100132.75;;;12.81;46.82
53715;BME280;39608;55.630;37.864;2023-05-16T02:10:12;100127.38;;;12.95;46.65
53715;BME280;39608;55.630;37.864;2023-05-16T02:15:15;100124.72;;;13.09;45.79
53715;BME280;39608;55.630;37.864;2023-05-16T02:20:18;100122.00;;;13.09;45.75
53715;BME280;39608;55.630;37.864;2023-05-16T02:25:20;100128.91;;;13.21;45.55
53715;BME280;39608;55.630;37.864;2023-05-16T02:30:23;100134.72;;;13.33;45.42
53715;BME280;39608;55.630;37.864;2023-05-16T02:35:25;100140.59;;;13.40;45.44
53715;BME280;39608;55.630;37.864;2023-05-16T02:40:28;100129.56;;;13.50;45.03
53715;BME280;39608;55.630;37.864;2023-05-16T02:45:32;100132.69;;;13.58;44.99
53715;BME280;39608;55.630;37.864;2023-05-16T02:50:34;100128.34;;;13.57;44.85
53715;BME280;39608;55.630;37.864;2023-05-16T02:55:37;100135.84;;;13.65;44.73
53715;BME280;39608;55.630;37.864;2023-05-16T03:00:40;100134.91;;;13.69;44.58
53715;BME280;39608;55.630;37.864;2023-05-16T03:05:42;100132.91;;;13.75;44.47
53715;BME280;39608;55.630;37.864;2023-05-16T03:10:45;100128.09;;;13.86;44.30
53715;BME280;39608;55.630;37.864;2023-05-16T03:15:48;100134.25;;;14.06;44.20
53715;BME280;39608;55.630;37.864;2023-05-16T03:20:50;100139.31;;;14.12;43.89
53715;BME280;39608;55.630;37.864;2023-05-16T03:25:53;100128.19;;;14.09;43.83
53715;BME280;39608;55.630;37.864;2023-05-16T03:30:57;100159.34;;;14.22;44.10
53715;BME280;39608;55.630;37.864;2023-05-16T03:35:59;100162.56;;;14.24;44.33
53715;BME280;39608;55.630;37.864;2023-05-16T03:41:02;100171.03;;;14.08;44.86
53715;BME280;39608;55.630;37.864;2023-05-16T03:46:05;100165.94;;;13.88;45.61
53715;BME280;39608;55.630;37.864;2023-05-16T03:51:08;100172.72;;;13.90;45.64
53715;BME280;39608;55.630;37.864;2023-05-16T03:56:10;100177.88;;;13.92;45.66
53715;BME280;39608;55.630;37.864;2023-05-16T04:01:13;100176.41;;;14.13;45.41
53715;BME280;39608;55.630;37.864;2023-05-16T04:06:15;100191.25;;;14.21;45.47
53715;BME280;39608;55.630;37.864;2023-05-16T04:11:18;100186.88;;;14.34;45.46
53715;BME280;39608;55.630;37.864;2023-05-16T04:16:22;100191.34;;;14.44;45.42
53715;BME280;39608;55.630;37.864;2023-05-16T04:21:24;100190.75;;;14.61;45.23
53715;BME280;39608;55.630;37.864;2023-05-16T04:26:26;100191.44;;;14.80;45.00
53715;BME280;39608;55.630;37.864;2023-05-16T04:31:31;100197.28;;;15.01;44.71
53715;BME280;39608;55.630;37.864;2023-05-16T04:36:33;100190.03;;;15.19;44.24
53715;BME280;39608;55.630;37.864;2023-05-16T04:41:35;100187.53;;;15.32;43.93
53715;BME280;39608;55.630;37.864;2023-05-16T04:46:38;100143.31;;;15.30;43.64
53715;BME280;39608;55.630;37.864;2023-05-16T04:51:41;100193.94;;;15.72;42.98
53715;BME280;39608;55.630;37.864;2023-05-16T04:56:43;100195.84;;;15.95;42.51
53715;BME280;39608;55.630;37.864;2023-05-16T05:01:46;100200.97;;;16.19;41.96
53715;BME280;39608;55.630;37.864;2023-05-16T05:06:48;100196.41;;;16.54;41.29
53715;BME280;39608;55.630;37.864;2023-05-16T05:11:51;100201.19;;;17.50;39.61
53715;BME280;39608;55.630;37.864;2023-05-16T05:16:54;100209.81;;;18.43;38.41
53715;BME280;39608;55.630;37.864;2023-05-16T05:21:56;100208.25;;;19.14;36.75
53715;BME280;39608;55.630;37.864;2023-05-16T05:27:07;100220.75;;;19.66;36.23
53715;BME280;39608;55.630;37.864;2023-05-16T05:32:11;100226.13;;;19.63;35.03
53715;BME280;39608;55.630;37.864;2023-05-16T05:37:13;100222.84;;;19.48;34.66
53715;BME280;39608;55.630;37.864;2023-05-16T05:42:15;100218.22;;;19.74;35.37
53715;BME280;39608;55.630;37.864;2023-05-16T05:47:19;100226.53;;;20.57;33.26
53715;BME280;39608;55.630;37.864;2023-05-16T05:52:21;100221.22;;;21.42;31.20
53715;BME280;39608;55.630;37.864;2023-05-16T05:57:23;100229.91;;;22.00;30.36
53715;BME280;39608;55.630;37.864;2023-05-16T06:02:27;100230.28;;;22.31;29.89
53715;BME280;39608;55.630;37.864;2023-05-16T06:07:29;100235.19;;;22.21;29.64
53715;BME280;39608;55.630;37.864;2023-05-16T06:12:31;100237.78;;;22.62;28.88
53715;BME280;39608;55.630;37.864;2023-05-16T06:17:34;100248.94;;;23.01;28.29
53715;BME280;39608;55.630;37.864;2023-05-16T06:22:36;100247.06;;;23.05;27.46
53715;BME280;39608;55.630;37.864;2023-05-16T06:27:38;100241.75;;;23.32;27.32
53715;BME280;39608;55.630;37.864;2023-05-16T06:32:42;100245.69;;;23.51;26.88
53715;BME280;39608;55.630;37.864;2023-05-16T06:37:44;100247.72;;;23.54;26.28
53715;BME280;39608;55.630;37.864;2023-05-16T06:42:46;100243.53;;;23.83;26.31
53715;BME280;39608;55.630;37.864;2023-05-16T06:47:49;100253.53;;;24.34;25.76
53715;BME280;39608;55.630;37.864;2023-05-16T06:52:51;100238.97;;;24.14;25.52
53715;BME280;39608;55.630;37.864;2023-05-16T06:57:53;100241.25;;;24.32;25.05
53715;BME280;39608;55.630;37.864;2023-05-16T07:02:57;100240.38;;;24.77;25.07
53715;BME280;39608;55.630;37.864;2023-05-16T07:07:59;100236.44;;;24.79;24.31
53715;BME280;39608;55.630;37.864;2023-05-16T07:13:01;100225.84;;;24.11;24.81
53715;BME280;39608;55.630;37.864;2023-05-16T07:18:05;100220.97;;;24.28;24.77
53715;BME280;39608;55.630;37.864;2023-05-16T07:23:08;100220.13;;;25.04;23.53
53715;BME280;39608;55.630;37.864;2023-05-16T07:28:10;100224.56;;;25.08;23.35
53715;BME280;39608;55.630;37.864;2023-05-16T07:33:13;100226.44;;;25.31;23.61
53715;BME280;39608;55.630;37.864;2023-05-16T07:38:15;100228.19;;;25.13;23.66
53715;BME280;39608;55.630;37.864;2023-05-16T07:43:17;100220.38;;;24.91;22.99
53715;BME280;39608;55.630;37.864;2023-05-16T07:48:21;100227.56;;;25.26;22.81
53715;BME280;39608;55.630;37.864;2023-05-16T07:53:23;100226.53;;;25.08;22.61
53715;BME280;39608;55.630;37.864;2023-05-16T07:58:25;100217.00;;;25.36;22.60
53715;BME280;39608;55.630;37.864;2023-05-16T08:03:28;100203.53;;;25.72;21.67
53715;BME280;39608;55.630;37.864;2023-05-16T08:08:30;100205.47;;;26.05;20.53
53715;BME280;39608;55.630;37.864;2023-05-16T08:13:32;100221.97;;;26.32;20.67
53715;BME280;39608;55.630;37.864;2023-05-16T08:18:36;100217.56;;;26.27;20.98
53715;BME280;39608;55.630;37.864;2023-05-16T08:23:38;100213.22;;;25.89;20.91
53715;BME280;39608;55.630;37.864;2023-05-16T08:28:40;100206.88;;;25.92;20.77
53715;BME280;39608;55.630;37.864;2023-05-16T08:33:44;100188.38;;;26.59;20.39
53715;BME280;39608;55.630;37.864;2023-05-16T08:38:48;100204.97;;;26.44;20.09
53715;BME280;39608;55.630;37.864;2023-05-16T08:43:50;100207.25;;;26.32;20.69
53715;BME280;39608;55.630;37.864;2023-05-16T08:48:57;100191.25;;;26.70;20.45
53715;BME280;39608;55.630;37.864;2023-05-16T08:54:03;100202.16;;;27.04;20.16
53715;BME280;39608;55.630;37.864;2023-05-16T08:59:07;100187.06;;;27.05;20.01
53715;BME280;39608;55.630;37.864;2023-05-16T09:04:10;100180.53;;;27.81;19.50
53715;BME280;39608;55.630;37.864;2023-05-16T09:09:12;100192.13;;;28.02;18.91
53715;BME280;39608;55.630;37.864;2023-05-16T09:14:14;100188.88;;;27.85;19.20
53715;BME280;39608;55.630;37.864;2023-05-16T09:19:22;100178.09;;;27.65;19.70
53715;BME280;39608;55.630;37.864;2023-05-16T09:24:24;100184.53;;;28.20;18.87
53715;BME280;39608;55.630;37.864;2023-05-16T09:29:27;100182.53;;;28.39;19.30
53715;BME280;39608;55.630;37.864;2023-05-16T09:34:30;100180.53;;;28.43;18.90
53715;BME280;39608;55.630;37.864;2023-05-16T09:39:32;100181.31;;;28.76;18.69
53715;BME280;39608;55.630;37.864;2023-05-16T09:44:34;100182.03;;;28.94;18.46
53715;BME280;39608;55.630;37.864;2023-05-16T09:49:37;100176.03;;;28.96;18.72
53715;BME280;39608;55.630;37.864;2023-05-16T09:54:40;100167.25;;;29.01;18.32
53715;BME280;39608;55.630;37.864;2023-05-16T09:59:42;100167.00;;;28.27;18.22
53715;BME280;39608;55.630;37.864;2023-05-16T10:04:47;100154.66;;;28.28;18.58
53715;BME280;39608;55.630;37.864;2023-05-16T10:09:50;100133.56;;;28.12;18.90
53715;BME280;39608;55.630;37.864;2023-05-16T10:14:53;100145.47;;;28.27;18.58
53715;BME280;39608;55.630;37.864;2023-05-16T10:19:59;100141.50;;;28.32;18.91
53715;BME280;39608;55.630;37.864;2023-05-16T10:25:09;100127.47;;;28.72;18.62
53715;BME280;39608;55.630;37.864;2023-05-16T10:30:14;100121.91;;;28.57;18.87
53715;BME280;39608;55.630;37.864;2023-05-16T10:35:18;100136.16;;;28.92;18.90
53715;BME280;39608;55.630;37.864;2023-05-16T10:40:21;100134.53;;;29.05;18.48
53715;BME280;39608;55.630;37.864;2023-05-16T10:45:24;100118.50;;;29.16;18.35
53715;BME280;39608;55.630;37.864;2023-05-16T10:50:35;100113.59;;;29.39;17.90
53715;BME280;39608;55.630;37.864;2023-05-16T10:55:38;100112.09;;;29.19;17.82
53715;BME280;39608;55.630;37.864;2023-05-16T11:00:40;100114.03;;;29.33;17.78
53715;BME280;39608;55.630;37.864;2023-05-16T11:05:50;100113.66;;;29.28;18.09
53715;BME280;39608;55.630;37.864;2023-05-16T11:16:34;100098.88;;;29.31;17.89
53715;BME280;39608;55.630;37.864;2023-05-16T11:22:05;100096.38;;;29.47;18.35
53715;BME280;39608;55.630;37.864;2023-05-16T11:27:11;100091.50;;;29.59;17.86
53715;BME280;39608;55.630;37.864;2023-05-16T11:32:18;100076.31;;;28.96;18.40
53715;BME280;39608;55.630;37.864;2023-05-16T11:37:22;100102.28;;;28.86;18.27
53715;BME280;39608;55.630;37.864;2023-05-16T11:42:24;100089.00;;;29.08;18.19
53715;BME280;39608;55.630;37.864;2023-05-16T11:47:26;100082.41;;;29.47;17.93
53715;BME280;39608;55.630;37.864;2023-05-16T11:52:31;100076.69;;;29.62;18.23
53715;BME280;39608;55.630;37.864;2023-05-16T11:57:33;100072.56;;;29.28;18.16
53715;BME280;39608;55.630;37.864;2023-05-16T12:02:35;100082.19;;;29.20;18.37
53715;BME280;39608;55.630;37.864;2023-05-16T12:07:39;100071.75;;;29.84;17.96
53715;BME280;39608;55.630;37.864;2023-05-16T12:12:43;100070.38;;;30.03;17.96
53715;BME280;39608;55.630;37.864;2023-05-16T12:17:46;100072.78;;;30.01;18.44
53715;BME280;39608;55.630;37.864;2023-05-16T12:22:51;100072.25;;;30.86;17.50
53715;BME280;39608;55.630;37.864;2023-05-16T12:27:53;100075.88;;;30.52;17.55
53715;BME280;39608;55.630;37.864;2023-05-16T12:32:56;100070.59;;;30.58;17.70
53715;BME280;39608;55.630;37.864;2023-05-16T12:38:02;100056.50;;;30.65;17.73
53715;BME280;39608;55.630;37.864;2023-05-16T12:43:12;100051.09;;;30.50;18.19
53715;BME280;39608;55.630;37.864;2023-05-16T12:48:13;100058.19;;;30.59;17.70
53715;BME280;39608;55.630;37.864;2023-05-16T12:53:17;100051.31;;;30.67;17.92
53715;BME280;39608;55.630;37.864;2023-05-16T12:58:19;100048.75;;;30.07;17.97
53715;BME280;39608;55.630;37.864;2023-05-16T13:03:22;100044.28;;;30.51;18.07
53715;BME280;39608;55.630;37.864;2023-05-16T13:08:26;100030.22;;;30.59;17.93
53715;BME280;39608;55.630;37.864;2023-05-16T13:13:28;100038.66;;;30.17;17.93
53715;BME280;39608;55.630;37.864;2023-05-16T13:18:30;100046.84;;;29.97;18.00
53715;BME280;39608;55.630;37.864;2023-05-16T13:23:35;100050.53;;;30.28;18.06
53715;BME280;39608;55.630;37.864;2023-05-16T13:28:37;100044.25;;;29.72;18.25
53715;BME280;39608;55.630;37.864;2023-05-16T13:33:39;100045.31;;;29.43;18.67
53715;BME280;39608;55.630;37.864;2023-05-16T13:38:42;100043.50;;;29.67;18.54
53715;BME280;39608;55.630;37.864;2023-05-16T13:43:44;100038.19;;;29.84;18.44
53715;BME280;39608;55.630;37.864;2023-05-16T13:48:46;100028.25;;;29.30;18.90
53715;BME280;39608;55.630;37.864;2023-05-16T13:53:51;100035.63;;;30.04;18.46
53715;BME280;39608;55.630;37.864;2023-05-16T13:58:53;100021.75;;;29.90;18.30
53715;BME280;39608;55.630;37.864;2023-05-16T14:03:55;100025.69;;;29.50;19.16
53715;BME280;39608;55.630;37.864;2023-05-16T14:08:59;100023.78;;;29.85;18.57
53715;BME280;39608;55.630;37.864;2023-05-16T14:14:01;100016.81;;;30.04;18.46
53715;BME280;39608;55.630;37.864;2023-05-16T14:19:03;100012.91;;;29.98;18.34
53715;BME280;39608;55.630;37.864;2023-05-16T14:24:08;100019.44;;;29.32;18.97
53715;BME280;39608;55.630;37.864;2023-05-16T14:29:11;100011.75;;;28.83;19.35
53715;BME280;39608;55.630;37.864;2023-05-16T14:34:14;100013.75;;;28.87;19.28
53715;BME280;39608;55.630;37.864;2023-05-16T14:39:17;100002.63;;;28.79;19.52
53715;BME280;39608;55.630;37.864;2023-05-16T14:44:20;100006.50;;;27.97;20.12
53715;BME280;39608;55.630;37.864;2023-05-16T14:49:24;100014.81;;;28.22;20.02
53715;BME280;39608;55.630;37.864;2023-05-16T14:54:27;100017.31;;;27.48;20.72
53715;BME280;39608;55.630;37.864;2023-05-16T14:59:29;100011.97;;;26.71;21.30
53715;BME280;39608;55.630;37.864;2023-05-16T15:04:32;100012.25;;;26.44;21.86
53715;BME280;39608;55.630;37.864;2023-05-16T15:09:35;100013.47;;;25.80;22.08
53715;BME280;39608;55.630;37.864;2023-05-16T15:14:37;100019.03;;;24.94;23.10
53715;BME280;39608;55.630;37.864;2023-05-16T15:19:39;100001.09;;;24.50;23.71
53715;BME280;39608;55.630;37.864;2023-05-16T15:24:44;100010.69;;;23.99;24.03
53715;BME280;39608;55.630;37.864;2023-05-16T15:29:47;100016.69;;;23.51;25.04
53715;BME280;39608;55.630;37.864;2023-05-16T15:34:51;100015.88;;;23.28;25.35
53715;BME280;39608;55.630;37.864;2023-05-16T15:39:55;100018.81;;;23.15;25.68
53715;BME280;39608;55.630;37.864;2023-05-16T15:44:57;100012.09;;;22.93;25.78
53715;BME280;39608;55.630;37.864;2023-05-16T15:49:59;100012.13;;;22.73;25.92
53715;BME280;39608;55.630;37.864;2023-05-16T15:55:03;100008.63;;;22.77;26.39
53715;BME280;39608;55.630;37.864;2023-05-16T16:00:06;100010.22;;;22.58;26.78
53715;BME280;39608;55.630;37.864;2023-05-16T16:05:09;100008.50;;;22.50;27.07
53715;BME280;39608;55.630;37.864;2023-05-16T16:10:12;100007.75;;;22.33;27.10
53715;BME280;39608;55.630;37.864;2023-05-16T16:15:15;100008.78;;;22.09;27.59
53715;BME280;39608;55.630;37.864;2023-05-16T16:20:20;100013.34;;;22.01;28.15
53715;BME280;39608;55.630;37.864;2023-05-16T16:25:24;100025.16;;;22.02;28.13
53715;BME280;39608;55.630;37.864;2023-05-16T16:30:26;100034.34;;;22.06;28.41
53715;BME280;39608;55.630;37.864;2023-05-16T16:35:28;100027.88;;;21.98;28.18
53715;BME280;39608;55.630;37.864;2023-05-16T16:40:31;100031.72;;;21.78;28.48
53715;BME280;39608;55.630;37.864;2023-05-16T16:45:34;100035.28;;;21.46;28.89
53715;BME280;39608;55.630;37.864;2023-05-16T16:50:36;100047.53;;;21.33;29.40
53715;BME280;39608;55.630;37.864;2023-05-16T16:55:39;100035.44;;;21.22;29.38
53715;BME280;39608;55.630;37.864;2023-05-16T17:00:41;100056.31;;;21.07;29.63
53715;BME280;39608;55.630;37.864;2023-05-16T17:05:44;100053.97;;;20.93;30.15
53715;BME280;39608;55.630;37.864;2023-05-16T17:10:47;100058.25;;;20.90;30.46
53715;BME280;39608;55.630;37.864;2023-05-16T17:15:49;100050.03;;;20.78;30.97
53715;BME280;39608;55.630;37.864;2023-05-16T17:20:51;100056.47;;;20.70;30.97
53715;BME280;39608;55.630;37.864;2023-05-16T17:25:58;100059.25;;;20.57;30.92
53715;BME280;39608;55.630;37.864;2023-05-16T17:31:00;100059.75;;;20.34;31.27
53715;BME280;39608;55.630;37.864;2023-05-16T17:36:04;100067.25;;;20.22;31.55
53715;BME280;39608;55.630;37.864;2023-05-16T17:41:08;100062.31;;;20.15;31.91
53715;BME280;39608;55.630;37.864;2023-05-16T17:46:10;100072.66;;;20.06;32.37
53715;BME280;39608;55.630;37.864;2023-05-16T17:51:12;100071.28;;;19.99;32.15
53715;BME280;39608;55.630;37.864;2023-05-16T17:56:15;100055.31;;;19.80;32.70
53715;BME280;39608;55.630;37.864;2023-05-16T18:01:19;100065.94;;;19.70;32.56
53715;BME280;39608;55.630;37.864;2023-05-16T18:06:21;100066.75;;;19.58;32.78
53715;BME280;39608;55.630;37.864;2023-05-16T18:11:25;100068.69;;;19.45;32.70
53715;BME280;39608;55.630;37.864;2023-05-16T18:16:28;100072.44;;;19.28;33.07
53715;BME280;39608;55.630;37.864;2023-05-16T18:21:30;100075.72;;;19.21;33.41
53715;BME280;39608;55.630;37.864;2023-05-16T18:26:35;100088.22;;;19.19;33.37
53715;BME280;39608;55.630;37.864;2023-05-16T18:31:37;100086.22;;;19.07;33.73
53715;BME280;39608;55.630;37.864;2023-05-16T18:36:41;100093.22;;;19.04;33.98
53715;BME280;39608;55.630;37.864;2023-05-16T18:41:46;100093.88;;;19.01;33.86
53715;BME280;39608;55.630;37.864;2023-05-16T18:46:50;100101.31;;;19.01;33.93
53715;BME280;39608;55.630;37.864;2023-05-16T18:51:52;100102.00;;;18.97;34.50
53715;BME280;39608;55.630;37.864;2023-05-16T18:56:57;100107.25;;;18.90;34.17
53715;BME280;39608;55.630;37.864;2023-05-16T19:01:59;100087.75;;;18.74;34.58
53715;BME280;39608;55.630;37.864;2023-05-16T19:07:01;100101.03;;;18.72;34.99
53715;BME280;39608;55.630;37.864;2023-05-16T19:12:05;100091.38;;;18.66;34.78
53715;BME280;39608;55.630;37.864;2023-05-16T19:17:07;100093.53;;;18.60;35.03
53715;BME280;39608;55.630;37.864;2023-05-16T19:22:09;100091.00;;;18.55;34.94
53715;BME280;39608;55.630;37.864;2023-05-16T19:27:15;100092.25;;;18.58;34.83
53715;BME280;39608;55.630;37.864;2023-05-16T19:32:18;100090.69;;;18.48;35.08
53715;BME280;39608;55.630;37.864;2023-05-16T19:37:20;100087.03;;;18.44;35.59
53715;BME280;39608;55.630;37.864;2023-05-16T19:42:23;100081.84;;;18.42;35.07
53715;BME280;39608;55.630;37.864;2023-05-16T19:47:26;100087.22;;;18.39;35.45
53715;BME280;39608;55.630;37.864;2023-05-16T19:52:28;100088.34;;;18.38;35.29
53715;BME280;39608;55.630;37.864;2023-05-16T19:57:32;100093.38;;;18.36;35.29
53715;BME280;39608;55.630;37.864;2023-05-16T20:02:34;100081.97;;;18.25;35.70
53715;BME280;39608;55.630;37.864;2023-05-16T20:07:36;100094.09;;;18.24;35.54
53715;BME280;39608;55.630;37.864;2023-05-16T20:12:41;100095.09;;;18.19;35.48
53715;BME280;39608;55.630;37.864;2023-05-16T20:17:43;100093.88;;;18.08;35.78
53715;BME280;39608;55.630;37.864;2023-05-16T20:22:45;100097.06;;;18.10;35.87
53715;BME280;39608;55.630;37.864;2023-05-16T20:27:48;100103.69;;;18.09;35.57
53715;BME280;39608;55.630;37.864;2023-05-16T20:32:50;100103.34;;;18.19;35.45
53715;BME280;39608;55.630;37.864;2023-05-16T20:37:52;100105.31;;;18.10;35.81
53715;BME280;39608;55.630;37.864;2023-05-16T20:42:56;100097.28;;;18.05;35.78
53715;BME280;39608;55.630;37.864;2023-05-16T20:47:58;100102.28;;;18.03;35.77
53715;BME280;39608;55.630;37.864;2023-05-16T20:53:00;100105.81;;;18.03;35.79
53715;BME280;39608;55.630;37.864;2023-05-16T20:58:03;100098.13;;;17.88;36.32
53715;BME280;39608;55.630;37.864;2023-05-16T21:03:05;100105.03;;;18.03;35.65
53715;BME280;39608;55.630;37.864;2023-05-16T21:08:08;100100.56;;;17.81;36.18
53715;BME280;39608;55.630;37.864;2023-05-16T21:13:11;100108.31;;;17.87;36.13
53715;BME280;39608;55.630;37.864;2023-05-16T21:18:13;100088.03;;;17.71;36.39
53715;BME280;39608;55.630;37.864;2023-05-16T21:23:15;100095.69;;;17.86;36.08
53715;BME280;39608;55.630;37.864;2023-05-16T21:28:19;100102.22;;;17.73;36.59
53715;BME280;39608;55.630;37.864;2023-05-16T21:33:21;100092.84;;;17.74;36.63
53715;BME280;39608;55.630;37.864;2023-05-16T21:38:23;100101.78;;;17.62;36.78
53715;BME280;39608;55.630;37.864;2023-05-16T21:43:26;100084.53;;;17.61;37.17
53715;BME280;39608;55.630;37.864;2023-05-16T21:48:28;100092.28;;;17.51;37.43
53715;BME280;39608;55.630;37.864;2023-05-16T21:53:30;100076.22;;;17.40;37.73
53715;BME280;39608;55.630;37.864;2023-05-16T21:58:35;100082.84;;;17.31;37.67
53715;BME280;39608;55.630;37.864;2023-05-16T22:03:37;100087.03;;;17.28;37.47
53715;BME280;39608;55.630;37.864;2023-05-16T22:08:39;100089.63;;;17.24;37.34
53715;BME280;39608;55.630;37.864;2023-05-16T22:13:42;100098.50;;;17.21;37.67
53715;BME280;39608;55.630;37.864;2023-05-16T22:18:44;100098.84;;;17.11;37.94
53715;BME280;39608;55.630;37.864;2023-05-16T22:23:46;100093.97;;;17.08;38.19
53715;BME280;39608;55.630;37.864;2023-05-16T22:28:50;100084.34;;;17.02;38.02
53715;BME280;39608;55.630;37.864;2023-05-16T22:33:52;100063.22;;;16.85;38.66
53715;BME280;39608;55.630;37.864;2023-05-16T22:38:54;100079.19;;;16.91;38.35
53715;BME280;39608;55.630;37.864;2023-05-16T22:43:58;100083.53;;;16.92;38.52
53715;BME280;39608;55.630;37.864;2023-05-16T22:49:00;100095.91;;;16.81;38.84
53715;BME280;39608;55.630;37.864;2023-05-16T22:54:02;100090.13;;;16.74;38.48
53715;BME280;39608;55.630;37.864;2023-05-16T22:59:05;100093.50;;;16.71;38.93
53715;BME280;39608;55.630;37.864;2023-05-16T23:04:07;100090.72;;;16.53;39.29
53715;BME280;39608;55.630;37.864;2023-05-16T23:09:09;100092.69;;;16.53;39.06
53715;BME280;39608;55.630;37.864;2023-05-16T23:14:13;100089.94;;;16.44;39.21
53715;BME280;39608;55.630;37.864;2023-05-16T23:19:15;100094.56;;;16.35;39.65
53715;BME280;39608;55.630;37.864;2023-05-16T23:24:17;100098.09;;;16.27;39.90
53715;BME280;39608;55.630;37.864;2023-05-16T23:29:20;100091.97;;;16.21;39.86
53715;BME280;39608;55.630;37.864;2023-05-16T23:34:22;100098.88;;;16.10;40.24
53715;BME280;39608;55.630;37.864;2023-05-16T23:39:24;100099.78;;;15.96;40.48
53715;BME280;39608;55.630;37.864;2023-05-16T23:44:27;100091.09;;;15.94;40.50
53715;BME280;39608;55.630;37.864;2023-05-16T23:49:31;100102.81;;;15.86;40.41
53715;BME280;39608;55.630;37.864;2023-05-16T23:54:33;100095.88;;;15.80;40.49
53715;BME280;39608;55.630;37.864;2023-05-16T23:59:36;100101.75;;;15.73;40.81
